createdAt,value
2023-12-27T00:03:07.731Z,100323.69
2023-12-27T00:08:09.878Z,100314.84
2023-12-27T00:13:11.552Z,100368.38
2023-12-27T00:18:13.568Z,100324.09
2023-12-27T00:23:15.367Z,100403.94
2023-12-27T00:28:17.058Z,100274.81
2023-12-27T00:33:19.690Z,100316.72
2023-12-27T00:38:21.397Z,100325.63
2023-12-27T00:43:23.053Z,100264.78
2023-12-27T00:48:24.936Z,100340.56
2023-12-27T00:53:26.680Z,100322.19
2023-12-27T00:58:28.396Z,100192.38
2023-12-27T01:03:30.194Z,100332.72
2023-12-27T01:08:31.858Z,100316.44
2023-12-27T01:13:33.670Z,100393.31
2023-12-27T01:18:35.617Z,100327.56
2023-12-27T01:23:37.469Z,100427.81
2023-12-27T01:28:39.119Z,100387.31
2023-12-27T01:33:42.412Z,100377.56
2023-12-27T01:38:44.194Z,100292.06
2023-12-27T01:43:45.941Z,100392.47
2023-12-27T01:48:47.702Z,100260.72
2023-12-27T01:53:50.523Z,100363.88
2023-12-27T01:58:52.170Z,100366.22
2023-12-27T02:03:53.992Z,100345.06
2023-12-27T02:08:55.945Z,100277.78
2023-12-27T02:13:57.706Z,100310.09
2023-12-27T02:19:01.720Z,100334.84
2023-12-27T02:24:04.943Z,100386.25
2023-12-27T02:29:06.648Z,100308.50
2023-12-27T02:34:08.519Z,100334.44
2023-12-27T02:39:10.391Z,100390.94
2023-12-27T02:44:12.090Z,100284.38
2023-12-27T02:49:13.952Z,100356.31
2023-12-27T02:54:16.142Z,100304.06
2023-12-27T02:59:17.871Z,100330.38
2023-12-27T03:04:19.670Z,100373.25
2023-12-27T03:09:21.349Z,100294.78
2023-12-27T03:14:23.024Z,100365.47
2023-12-27T03:19:26.460Z,100316.91
2023-12-27T03:24:28.390Z,100391.59
2023-12-27T03:29:30.181Z,100334.88
2023-12-27T03:34:32.155Z,100302.53
2023-12-27T03:39:33.964Z,100400.13
2023-12-27T03:44:35.733Z,100380.31
2023-12-27T03:49:37.707Z,100294.88
2023-12-27T03:54:39.851Z,100203.50
2023-12-27T03:59:42.216Z,100268.66
2023-12-27T04:04:44.135Z,100253.94
2023-12-27T04:09:45.913Z,100246.28
2023-12-27T04:14:47.750Z,100295.88
2023-12-27T04:19:49.501Z,100305.84
2023-12-27T04:24:51.202Z,100331.06
2023-12-27T04:29:52.862Z,100304.25
2023-12-27T04:34:54.579Z,100339.16
2023-12-27T04:39:56.270Z,100327.22
2023-12-27T04:44:58.010Z,100270.53
2023-12-27T04:49:59.954Z,100308.16
2023-12-27T04:55:01.879Z,100313.72
2023-12-27T05:00:05.396Z,100244.44
2023-12-27T05:05:08.843Z,100345.88
2023-12-27T05:10:10.680Z,100262.59
2023-12-27T05:15:12.453Z,100317.44
2023-12-27T05:20:14.582Z,100277.13
2023-12-27T05:25:16.344Z,100327.25
2023-12-27T05:30:18.489Z,100342.00
2023-12-27T05:35:20.312Z,100235.00
2023-12-27T05:40:22.004Z,100205.53
2023-12-27T05:45:23.996Z,100149.16
2023-12-27T05:50:25.720Z,100184.81
2023-12-27T05:55:27.375Z,100229.28
2023-12-27T06:00:29.214Z,100250.41
2023-12-27T06:05:31.088Z,100295.72
2023-12-27T06:10:33.308Z,100205.06
2023-12-27T06:15:35.023Z,100233.16
2023-12-27T06:20:36.920Z,100285.38
2023-12-27T06:25:38.653Z,100211.16
2023-12-27T06:30:40.375Z,100212.56
2023-12-27T06:35:42.961Z,100249.94
2023-12-27T06:40:44.640Z,100209.03
2023-12-27T06:45:46.461Z,100268.03
2023-12-27T06:50:49.673Z,100304.69
2023-12-27T06:55:51.391Z,100272.19
2023-12-27T07:00:53.185Z,100238.47
2023-12-27T07:05:55.089Z,100282.28
2023-12-27T07:10:57.014Z,100260.16
2023-12-27T07:15:59.128Z,100262.44
2023-12-27T07:21:00.922Z,100317.00
2023-12-27T07:26:02.762Z,100280.66
2023-12-27T07:31:04.965Z,100299.00
2023-12-27T07:36:08.272Z,100235.81
2023-12-27T07:41:10.083Z,100169.69
2023-12-27T07:46:11.967Z,100211.56
2023-12-27T07:51:13.695Z,100198.00
2023-12-27T07:56:16.931Z,100239.63
2023-12-27T08:01:22.349Z,100213.44
2023-12-27T08:06:27.639Z,100242.31
2023-12-27T08:11:29.347Z,100255.81
2023-12-27T08:16:31.041Z,100287.59
2023-12-27T08:21:32.701Z,100248.66
2023-12-27T08:26:34.377Z,100132.31
2023-12-27T08:31:36.172Z,100304.38
2023-12-27T08:36:38.084Z,100204.19
2023-12-27T08:41:39.818Z,100104.53
2023-12-27T08:46:41.523Z,100178.78
2023-12-27T08:51:43.202Z,100112.47
2023-12-27T08:56:44.962Z,100125.47
2023-12-27T09:01:46.612Z,100171.31
2023-12-27T09:06:48.409Z,100132.19
2023-12-27T09:11:50.126Z,100059.97
2023-12-27T09:16:51.816Z,100078.59
2023-12-27T09:21:53.460Z,100187.19
2023-12-27T09:26:55.109Z,100110.84
2023-12-27T09:31:57.317Z,99967.63
2023-12-27T09:36:59.134Z,100103.78
2023-12-27T09:42:01.004Z,100056.19
2023-12-27T09:47:03.930Z,100006.59
2023-12-27T09:52:06.563Z,100023.16
2023-12-27T09:57:08.709Z,100056.28
2023-12-27T10:02:17.574Z,100053.66
2023-12-27T10:07:22.447Z,100075.41
2023-12-27T10:12:25.442Z,100020.41
2023-12-27T10:17:28.650Z,100126.19
2023-12-27T10:22:30.815Z,100006.25
2023-12-27T10:27:32.628Z,100120.28
2023-12-27T10:32:34.583Z,100064.66
2023-12-27T10:37:38.968Z,99981.22
2023-12-27T10:42:42.770Z,99990.91
2023-12-27T10:47:47.607Z,99966.47
2023-12-27T10:53:00.703Z,99981.97
2023-12-27T10:58:04.424Z,99928.16
2023-12-27T11:06:18.978Z,99986.25
2023-12-27T11:11:22.955Z,99884.53
2023-12-27T11:16:28.683Z,99946.06
2023-12-27T11:21:30.917Z,99920.81
2023-12-27T11:26:37.693Z,99892.44
2023-12-27T11:31:40.448Z,99897.03
2023-12-27T11:36:45.697Z,99958.50
2023-12-27T11:41:48.924Z,99975.03
2023-12-27T11:46:50.661Z,99856.88
2023-12-27T11:51:52.934Z,99929.59
2023-12-27T11:56:55.350Z,99866.22
2023-12-27T12:01:59.744Z,99887.31
2023-12-27T12:07:21.086Z,99839.31
2023-12-27T12:12:24.327Z,99799.25
2023-12-27T12:17:28.384Z,99963.50
2023-12-27T12:22:31.368Z,99837.28
2023-12-27T12:27:33.112Z,99865.38
2023-12-27T12:32:40.946Z,99980.59
2023-12-27T12:37:42.873Z,99880.50
2023-12-27T12:42:45.710Z,99919.44
2023-12-27T12:47:47.771Z,99894.06
2023-12-27T12:52:50.521Z,99935.34
2023-12-27T12:57:53.232Z,99915.50
2023-12-27T13:02:55.251Z,99887.22
2023-12-27T13:07:57.140Z,99838.63
2023-12-27T13:12:59.054Z,99862.41
2023-12-27T13:18:01.168Z,99891.56
2023-12-27T13:23:03.622Z,99928.22
2023-12-27T13:28:09.563Z,99835.38
2023-12-27T13:33:13.916Z,99791.09
2023-12-27T13:38:16.246Z,99895.38
2023-12-27T13:43:18.127Z,99774.69
2023-12-27T13:48:22.471Z,99703.94
2023-12-27T13:53:24.590Z,99771.84
2023-12-27T13:58:26.388Z,99743.69
2023-12-27T14:03:31.785Z,99846.59
2023-12-27T14:08:34.003Z,99765.66
2023-12-27T14:13:35.744Z,99734.34
2023-12-27T14:18:37.581Z,99766.84
2023-12-27T14:23:39.389Z,99771.59
2023-12-27T14:28:41.350Z,99848.19
2023-12-27T14:33:45.039Z,99701.25
2023-12-27T14:38:46.962Z,99764.34
2023-12-27T14:43:48.868Z,99813.22
2023-12-27T14:48:50.639Z,99748.00
2023-12-27T14:53:52.398Z,99736.28
2023-12-27T14:58:54.126Z,99806.59
2023-12-27T15:03:55.949Z,99764.16
2023-12-27T15:08:58.680Z,99774.09
2023-12-27T15:14:00.528Z,99857.00
2023-12-27T15:19:02.494Z,99707.56
2023-12-27T15:24:04.573Z,99723.63
2023-12-27T15:29:06.329Z,99776.59
2023-12-27T15:34:09.373Z,99772.22
2023-12-27T15:39:11.322Z,99742.53
2023-12-27T15:44:13.643Z,99729.19
2023-12-27T15:49:15.657Z,99787.31
2023-12-27T15:54:17.781Z,99714.97
2023-12-27T15:59:20.704Z,99774.50
2023-12-27T16:04:22.730Z,99742.91
2023-12-27T16:09:24.666Z,99764.31
2023-12-27T16:14:26.372Z,99746.09
2023-12-27T16:19:28.366Z,99687.59
2023-12-27T16:24:30.176Z,99742.16
2023-12-27T16:29:32.669Z,99716.53
2023-12-27T16:34:34.490Z,99738.84
2023-12-27T16:39:36.358Z,99704.56
2023-12-27T16:44:38.238Z,99711.16
2023-12-27T16:49:40.026Z,99773.25
2023-12-27T16:54:41.954Z,99828.34
2023-12-27T16:59:43.780Z,99783.22
2023-12-27T17:04:45.546Z,99703.25
2023-12-27T17:09:49.379Z,99713.59
2023-12-27T17:14:52.874Z,99724.31
2023-12-27T17:19:54.562Z,99698.84
2023-12-27T17:24:56.401Z,99626.19
2023-12-27T17:29:58.103Z,99685.94
2023-12-27T17:34:59.767Z,99596.34
2023-12-27T17:40:01.958Z,99621.78
2023-12-27T17:45:05.196Z,99545.56
2023-12-27T17:50:08.147Z,99666.94
2023-12-27T17:55:09.865Z,99525.31
2023-12-27T18:00:13.559Z,99598.31
2023-12-27T18:05:15.378Z,99506.53
2023-12-27T18:10:17.196Z,99589.94
2023-12-27T18:15:18.947Z,99604.75
2023-12-27T18:20:20.980Z,99541.38
2023-12-27T18:25:22.732Z,99581.84
2023-12-27T18:30:24.921Z,99557.56
2023-12-27T18:35:26.859Z,99538.78
2023-12-27T18:40:28.798Z,99458.78
2023-12-27T18:45:30.495Z,99581.94
2023-12-27T18:50:32.335Z,99599.38
2023-12-27T18:55:34.386Z,99413.22
2023-12-27T19:00:36.081Z,99577.84
2023-12-27T19:05:37.844Z,99454.59
2023-12-27T19:10:39.531Z,99563.78
2023-12-27T19:15:41.326Z,99448.66
2023-12-27T19:20:43.140Z,99562.75
2023-12-27T19:25:44.839Z,99536.81
2023-12-27T19:30:47.996Z,99542.44
2023-12-27T19:35:49.779Z,99598.44
2023-12-27T19:40:51.533Z,99663.56
2023-12-27T19:45:53.363Z,99599.78
2023-12-27T19:50:56.093Z,99423.59
2023-12-27T19:55:57.817Z,99420.47
2023-12-27T20:01:00.650Z,99467.44
2023-12-27T20:06:05.587Z,99594.06
2023-12-27T20:11:07.569Z,99545.47
2023-12-27T20:16:09.523Z,99592.88
2023-12-27T20:21:11.259Z,99608.84
2023-12-27T20:26:13.166Z,99571.97
2023-12-27T20:31:15.025Z,99611.91
2023-12-27T20:36:16.889Z,99494.28
2023-12-27T20:41:20.692Z,99627.94
2023-12-27T20:46:22.395Z,99546.25
2023-12-27T20:51:24.130Z,99671.25
2023-12-27T20:56:25.882Z,99552.28
2023-12-27T21:01:27.679Z,99636.94
2023-12-27T21:06:29.501Z,99557.41
2023-12-27T21:11:38.033Z,99590.47
2023-12-27T21:16:41.070Z,99635.78
2023-12-27T21:21:46.034Z,99639.75
2023-12-27T21:26:47.970Z,99681.66
2023-12-27T21:31:49.751Z,99719.81
2023-12-27T21:36:52.176Z,99600.13
2023-12-27T21:41:55.317Z,99516.84
2023-12-27T21:46:57.034Z,99669.25
2023-12-27T21:51:58.901Z,99603.41
2023-12-27T21:57:00.650Z,99693.78
2023-12-27T22:02:02.716Z,99700.31
2023-12-27T22:07:06.695Z,99679.31
2023-12-27T22:12:10.198Z,99661.22
2023-12-27T22:17:12.079Z,99715.22
2023-12-27T22:22:14.420Z,99754.84
2023-12-27T22:27:16.181Z,99695.97
2023-12-27T22:32:17.858Z,99817.59
2023-12-27T22:37:19.591Z,99754.53
2023-12-27T22:42:21.356Z,99656.16
2023-12-27T22:47:25.993Z,99813.22
2023-12-27T22:52:27.888Z,99723.34
2023-12-27T22:57:29.599Z,99884.22
2023-12-27T23:02:31.992Z,99690.06
2023-12-27T23:07:33.828Z,99694.09
2023-12-27T23:12:35.661Z,99638.44
2023-12-27T23:17:40.234Z,99765.13
2023-12-27T23:22:42.074Z,99795.03
2023-12-27T23:27:43.840Z,99696.06
2023-12-27T23:32:51.015Z,99902.78
2023-12-27T23:37:53.692Z,99838.31
2023-12-27T23:42:55.399Z,99735.47
2023-12-27T23:47:57.412Z,99784.22
2023-12-27T23:52:59.329Z,99694.19
2023-12-27T23:58:01.264Z,99712.28
